sensor_id;sensor_type;location;lat;lon;timestamp;temperature;humidity
54260;DHT22;40172;53.022;7.012;2022-10-16T00:00:41;12.30;99.90
54260;DHT22;40172;53.022;7.012;2022-10-16T00:03:08;12.30;99.90
54260;DHT22;40172;53.022;7.012;2022-10-16T00:05:41;12.30;99.90
54260;DHT22;40172;53.022;7.012;2022-10-16T00:08:07;12.30;99.90
54260;DHT22;40172;53.022;7.012;2022-10-16T00:10:33;12.20;99.90
54260;DHT22;40172;53.022;7.012;2022-10-16T00:12:59;12.20;99.90
54260;DHT22;40172;53.022;7.012;2022-10-16T00:15:25;12.30;99.90
54260;DHT22;40172;53.022;7.012;2022-10-16T00:17:50;12.20;99.90
54260;DHT22;40172;53.022;7.012;2022-10-16T00:20:16;12.30;99.90
54260;DHT22;40172;53.022;7.012;2022-10-16T00:22:41;12.20;99.90
54260;DHT22;40172;53.022;7.012;2022-10-16T00:25:07;12.20;99.90
54260;DHT22;40172;53.022;7.012;2022-10-16T00:27:33;12.20;99.90
54260;DHT22;40172;53.022;7.012;2022-10-16T00:29:59;12.10;99.90
54260;DHT22;40172;53.022;7.012;2022-10-16T00:32:24;12.20;99.90
54260;DHT22;40172;53.022;7.012;2022-10-16T00:34:50;12.20;99.90
54260;DHT22;40172;53.022;7.012;2022-10-16T00:37:15;12.10;99.90
54260;DHT22;40172;53.022;7.012;2022-10-16T00:39:41;12.10;99.90
54260;DHT22;40172;53.022;7.012;2022-10-16T00:42:09;12.10;99.90
54260;DHT22;40172;53.022;7.012;2022-10-16T00:44:51;12.10;99.90
54260;DHT22;40172;53.022;7.012;2022-10-16T00:47:28;12.10;99.90
54260;DHT22;40172;53.022;7.012;2022-10-16T00:50:00;12.10;99.90
54260;DHT22;40172;53.022;7.012;2022-10-16T00:52:27;12.10;99.90
54260;DHT22;40172;53.022;7.012;2022-10-16T00:54:54;12.10;99.90
54260;DHT22;40172;53.022;7.012;2022-10-16T00:57:21;12.20;99.90
54260;DHT22;40172;53.022;7.012;2022-10-16T00:59:46;12.20;99.90
54260;DHT22;40172;53.022;7.012;2022-10-16T01:02:14;12.20;99.90
54260;DHT22;40172;53.022;7.012;2022-10-16T01:04:43;12.30;99.90
54260;DHT22;40172;53.022;7.012;2022-10-16T01:07:36;12.20;99.90
54260;DHT22;40172;53.022;7.012;2022-10-16T01:10:30;12.20;99.90
54260;DHT22;40172;53.022;7.012;2022-10-16T01:13:05;12.20;99.90
54260;DHT22;40172;53.022;7.012;2022-10-16T01:16:03;12.20;99.90
54260;DHT22;40172;53.022;7.012;2022-10-16T01:18:43;12.10;99.90
54260;DHT22;40172;53.022;7.012;2022-10-16T01:21:16;12.10;99.90
54260;DHT22;40172;53.022;7.012;2022-10-16T01:29:00;12.10;99.90
54260;DHT22;40172;53.022;7.012;2022-10-16T01:31:33;12.00;99.90
54260;DHT22;40172;53.022;7.012;2022-10-16T01:36:45;12.10;99.90
54260;DHT22;40172;53.022;7.012;2022-10-16T01:39:12;11.90;99.90
54260;DHT22;40172;53.022;7.012;2022-10-16T01:41:43;12.00;99.90
54260;DHT22;40172;53.022;7.012;2022-10-16T01:44:16;12.00;99.90
54260;DHT22;40172;53.022;7.012;2022-10-16T01:46:46;11.90;99.90
54260;DHT22;40172;53.022;7.012;2022-10-16T01:49:14;11.90;99.90
54260;DHT22;40172;53.022;7.012;2022-10-16T01:51:43;11.90;99.90
54260;DHT22;40172;53.022;7.012;2022-10-16T01:54:12;12.00;99.90
54260;DHT22;40172;53.022;7.012;2022-10-16T01:56:39;12.00;99.90
54260;DHT22;40172;53.022;7.012;2022-10-16T01:59:09;12.00;99.90
54260;DHT22;40172;53.022;7.012;2022-10-16T02:01:38;11.90;99.90
54260;DHT22;40172;53.022;7.012;2022-10-16T02:04:13;12.00;99.90
54260;DHT22;40172;53.022;7.012;2022-10-16T02:06:40;12.00;99.90
54260;DHT22;40172;53.022;7.012;2022-10-16T02:09:05;12.10;99.90
54260;DHT22;40172;53.022;7.012;2022-10-16T02:11:31;12.00;99.90
54260;DHT22;40172;53.022;7.012;2022-10-16T02:14:04;12.20;99.90
54260;DHT22;40172;53.022;7.012;2022-10-16T02:16:40;12.10;99.90
54260;DHT22;40172;53.022;7.012;2022-10-16T02:19:06;12.10;99.90
54260;DHT22;40172;53.022;7.012;2022-10-16T02:21:44;12.10;99.90
54260;DHT22;40172;53.022;7.012;2022-10-16T02:24:19;12.10;99.90
54260;DHT22;40172;53.022;7.012;2022-10-16T02:29:26;12.20;99.90
54260;DHT22;40172;53.022;7.012;2022-10-16T02:31:57;12.20;99.90
54260;DHT22;40172;53.022;7.012;2022-10-16T02:34:24;12.20;99.90
54260;DHT22;40172;53.022;7.012;2022-10-16T02:36:51;12.30;99.90
54260;DHT22;40172;53.022;7.012;2022-10-16T02:39:18;12.50;99.90
54260;DHT22;40172;53.022;7.012;2022-10-16T02:41:45;12.30;99.90
54260;DHT22;40172;53.022;7.012;2022-10-16T02:44:10;12.30;99.90
54260;DHT22;40172;53.022;7.012;2022-10-16T02:46:36;12.30;99.90
54260;DHT22;40172;53.022;7.012;2022-10-16T02:49:02;12.30;99.90
54260;DHT22;40172;53.022;7.012;2022-10-16T02:51:28;12.30;99.90
54260;DHT22;40172;53.022;7.012;2022-10-16T02:53:53;12.30;99.90
54260;DHT22;40172;53.022;7.012;2022-10-16T02:56:19;12.40;99.90
54260;DHT22;40172;53.022;7.012;2022-10-16T02:58:44;12.40;99.90
54260;DHT22;40172;53.022;7.012;2022-10-16T03:01:10;12.40;99.90
54260;DHT22;40172;53.022;7.012;2022-10-16T03:03:38;12.40;99.90
54260;DHT22;40172;53.022;7.012;2022-10-16T03:06:03;12.40;99.90
54260;DHT22;40172;53.022;7.012;2022-10-16T03:08:29;12.40;99.90
54260;DHT22;40172;53.022;7.012;2022-10-16T03:10:55;12.40;99.90
54260;DHT22;40172;53.022;7.012;2022-10-16T03:13:20;12.40;99.90
54260;DHT22;40172;53.022;7.012;2022-10-16T03:15:46;12.50;99.90
54260;DHT22;40172;53.022;7.012;2022-10-16T03:18:12;12.40;99.90
54260;DHT22;40172;53.022;7.012;2022-10-16T03:20:38;12.40;99.90
54260;DHT22;40172;53.022;7.012;2022-10-16T03:23:03;12.40;99.90
54260;DHT22;40172;53.022;7.012;2022-10-16T03:25:29;12.40;99.90
54260;DHT22;40172;53.022;7.012;2022-10-16T03:27:55;12.40;99.90
54260;DHT22;40172;53.022;7.012;2022-10-16T03:30:20;12.40;99.90
54260;DHT22;40172;53.022;7.012;2022-10-16T03:32:46;12.40;99.90
54260;DHT22;40172;53.022;7.012;2022-10-16T03:35:12;12.40;99.90
54260;DHT22;40172;53.022;7.012;2022-10-16T03:37:37;12.40;99.90
54260;DHT22;40172;53.022;7.012;2022-10-16T03:40:04;12.40;99.90
54260;DHT22;40172;53.022;7.012;2022-10-16T03:42:30;12.40;99.90
54260;DHT22;40172;53.022;7.012;2022-10-16T03:44:55;12.40;99.90
54260;DHT22;40172;53.022;7.012;2022-10-16T03:47:21;12.40;99.90
54260;DHT22;40172;53.022;7.012;2022-10-16T03:49:49;12.40;99.90
54260;DHT22;40172;53.022;7.012;2022-10-16T03:52:15;12.40;99.90
54260;DHT22;40172;53.022;7.012;2022-10-16T03:54:41;12.40;99.90
54260;DHT22;40172;53.022;7.012;2022-10-16T03:57:06;12.40;99.90
54260;DHT22;40172;53.022;7.012;2022-10-16T03:59:32;13.90;99.90
54260;DHT22;40172;53.022;7.012;2022-10-16T04:01:57;12.40;99.90
54260;DHT22;40172;53.022;7.012;2022-10-16T04:04:23;12.40;99.90
54260;DHT22;40172;53.022;7.012;2022-10-16T04:06:50;12.40;99.90
54260;DHT22;40172;53.022;7.012;2022-10-16T04:09:15;12.40;99.90
54260;DHT22;40172;53.022;7.012;2022-10-16T04:11:41;12.40;99.90
54260;DHT22;40172;53.022;7.012;2022-10-16T04:14:07;12.40;99.90
54260;DHT22;40172;53.022;7.012;2022-10-16T04:16:32;12.40;99.90
54260;DHT22;40172;53.022;7.012;2022-10-16T04:18:58;12.20;99.90
54260;DHT22;40172;53.022;7.012;2022-10-16T04:21:23;12.30;99.90
54260;DHT22;40172;53.022;7.012;2022-10-16T04:23:49;12.30;99.90
54260;DHT22;40172;53.022;7.012;2022-10-16T04:26:15;12.30;99.90
54260;DHT22;40172;53.022;7.012;2022-10-16T04:28:40;12.20;99.90
54260;DHT22;40172;53.022;7.012;2022-10-16T04:31:07;12.20;99.90
54260;DHT22;40172;53.022;7.012;2022-10-16T04:33:33;12.10;99.90
54260;DHT22;40172;53.022;7.012;2022-10-16T04:35:59;12.90;99.90
54260;DHT22;40172;53.022;7.012;2022-10-16T04:38:26;12.20;99.90
54260;DHT22;40172;53.022;7.012;2022-10-16T04:40:52;12.10;99.90
54260;DHT22;40172;53.022;7.012;2022-10-16T04:43:17;12.10;99.90
54260;DHT22;40172;53.022;7.012;2022-10-16T04:45:43;12.10;99.90
54260;DHT22;40172;53.022;7.012;2022-10-16T04:48:09;12.20;99.90
54260;DHT22;40172;53.022;7.012;2022-10-16T04:50:34;12.20;99.90
54260;DHT22;40172;53.022;7.012;2022-10-16T04:53:00;12.20;99.90
54260;DHT22;40172;53.022;7.012;2022-10-16T04:55:25;12.30;99.90
54260;DHT22;40172;53.022;7.012;2022-10-16T04:57:51;12.20;99.90
54260;DHT22;40172;53.022;7.012;2022-10-16T05:00:17;12.30;99.90
54260;DHT22;40172;53.022;7.012;2022-10-16T05:02:42;12.30;99.90
54260;DHT22;40172;53.022;7.012;2022-10-16T05:05:08;12.30;99.90
54260;DHT22;40172;53.022;7.012;2022-10-16T05:07:34;12.30;99.90
54260;DHT22;40172;53.022;7.012;2022-10-16T05:09:59;12.40;99.90
54260;DHT22;40172;53.022;7.012;2022-10-16T05:12:25;12.30;99.90
54260;DHT22;40172;53.022;7.012;2022-10-16T05:14:50;12.40;99.90
54260;DHT22;40172;53.022;7.012;2022-10-16T05:17:16;12.40;99.90
54260;DHT22;40172;53.022;7.012;2022-10-16T05:19:42;12.60;99.90
54260;DHT22;40172;53.022;7.012;2022-10-16T05:22:07;12.50;99.90
54260;DHT22;40172;53.022;7.012;2022-10-16T05:24:33;12.60;99.90
54260;DHT22;40172;53.022;7.012;2022-10-16T05:26:58;12.60;99.90
54260;DHT22;40172;53.022;7.012;2022-10-16T05:29:24;12.60;99.90
54260;DHT22;40172;53.022;7.012;2022-10-16T05:31:51;12.60;99.90
54260;DHT22;40172;53.022;7.012;2022-10-16T05:34:17;12.60;99.90
54260;DHT22;40172;53.022;7.012;2022-10-16T05:36:42;12.60;99.90
54260;DHT22;40172;53.022;7.012;2022-10-16T05:39:11;12.60;99.90
54260;DHT22;40172;53.022;7.012;2022-10-16T05:41:36;12.50;99.90
54260;DHT22;40172;53.022;7.012;2022-10-16T05:44:05;12.50;99.90
54260;DHT22;40172;53.022;7.012;2022-10-16T05:46:32;12.60;99.90
54260;DHT22;40172;53.022;7.012;2022-10-16T05:48:57;12.60;99.90
54260;DHT22;40172;53.022;7.012;2022-10-16T05:51:23;12.50;99.90
54260;DHT22;40172;53.022;7.012;2022-10-16T05:53:49;12.50;99.90
54260;DHT22;40172;53.022;7.012;2022-10-16T05:56:14;12.70;99.90
54260;DHT22;40172;53.022;7.012;2022-10-16T05:58:43;12.60;99.90
54260;DHT22;40172;53.022;7.012;2022-10-16T06:01:17;12.80;99.90
54260;DHT22;40172;53.022;7.012;2022-10-16T06:03:43;12.60;99.90
54260;DHT22;40172;53.022;7.012;2022-10-16T06:06:11;12.70;99.90
54260;DHT22;40172;53.022;7.012;2022-10-16T06:08:37;12.70;99.90
54260;DHT22;40172;53.022;7.012;2022-10-16T06:11:04;12.50;99.90
54260;DHT22;40172;53.022;7.012;2022-10-16T06:13:30;12.70;99.90
54260;DHT22;40172;53.022;7.012;2022-10-16T06:15:58;12.70;99.90
54260;DHT22;40172;53.022;7.012;2022-10-16T06:18:24;12.70;99.90
54260;DHT22;40172;53.022;7.012;2022-10-16T06:20:49;12.70;99.90
54260;DHT22;40172;53.022;7.012;2022-10-16T06:23:15;12.70;99.90
54260;DHT22;40172;53.022;7.012;2022-10-16T06:25:41;12.70;99.90
54260;DHT22;40172;53.022;7.012;2022-10-16T06:28:06;12.80;99.90
54260;DHT22;40172;53.022;7.012;2022-10-16T06:30:32;12.70;99.90
54260;DHT22;40172;53.022;7.012;2022-10-16T06:32:57;12.70;99.90
54260;DHT22;40172;53.022;7.012;2022-10-16T06:35:23;12.70;99.90
54260;DHT22;40172;53.022;7.012;2022-10-16T06:37:49;12.70;99.90
54260;DHT22;40172;53.022;7.012;2022-10-16T06:40:15;12.70;99.90
54260;DHT22;40172;53.022;7.012;2022-10-16T06:42:41;12.80;99.90
54260;DHT22;40172;53.022;7.012;2022-10-16T06:45:07;12.80;99.90
54260;DHT22;40172;53.022;7.012;2022-10-16T06:47:33;12.80;99.90
54260;DHT22;40172;53.022;7.012;2022-10-16T06:49:58;12.80;99.90
54260;DHT22;40172;53.022;7.012;2022-10-16T06:52:24;12.90;99.90
54260;DHT22;40172;53.022;7.012;2022-10-16T06:54:49;12.70;99.90
54260;DHT22;40172;53.022;7.012;2022-10-16T06:57:15;12.90;99.90
54260;DHT22;40172;53.022;7.012;2022-10-16T06:59:41;12.80;99.90
54260;DHT22;40172;53.022;7.012;2022-10-16T07:02:08;13.00;99.90
54260;DHT22;40172;53.022;7.012;2022-10-16T07:04:35;12.90;99.90
54260;DHT22;40172;53.022;7.012;2022-10-16T07:07:01;13.00;99.90
54260;DHT22;40172;53.022;7.012;2022-10-16T07:09:27;12.90;99.90
54260;DHT22;40172;53.022;7.012;2022-10-16T07:11:52;13.00;99.90
54260;DHT22;40172;53.022;7.012;2022-10-16T07:14:19;13.10;99.90
54260;DHT22;40172;53.022;7.012;2022-10-16T07:16:46;13.10;99.90
54260;DHT22;40172;53.022;7.012;2022-10-16T07:19:11;13.10;99.90
54260;DHT22;40172;53.022;7.012;2022-10-16T07:21:39;13.10;99.90
54260;DHT22;40172;53.022;7.012;2022-10-16T07:24:07;13.00;99.90
54260;DHT22;40172;53.022;7.012;2022-10-16T07:26:36;13.10;99.90
54260;DHT22;40172;53.022;7.012;2022-10-16T07:29:05;13.20;99.90
54260;DHT22;40172;53.022;7.012;2022-10-16T07:31:31;13.20;99.90
54260;DHT22;40172;53.022;7.012;2022-10-16T07:33:58;13.30;99.90
54260;DHT22;40172;53.022;7.012;2022-10-16T07:36:24;13.20;99.90
54260;DHT22;40172;53.022;7.012;2022-10-16T07:38:50;13.30;99.90
54260;DHT22;40172;53.022;7.012;2022-10-16T07:41:19;13.30;99.90
54260;DHT22;40172;53.022;7.012;2022-10-16T07:43:49;13.30;99.90
54260;DHT22;40172;53.022;7.012;2022-10-16T07:46:15;13.20;99.90
54260;DHT22;40172;53.022;7.012;2022-10-16T07:48:41;13.30;99.90
54260;DHT22;40172;53.022;7.012;2022-10-16T07:51:12;13.40;99.90
54260;DHT22;40172;53.022;7.012;2022-10-16T07:53:38;13.40;99.90
54260;DHT22;40172;53.022;7.012;2022-10-16T07:56:05;14.20;99.90
54260;DHT22;40172;53.022;7.012;2022-10-16T07:58:32;13.50;99.90
54260;DHT22;40172;53.022;7.012;2022-10-16T08:00:59;13.60;99.90
54260;DHT22;40172;53.022;7.012;2022-10-16T08:03:27;13.60;99.90
54260;DHT22;40172;53.022;7.012;2022-10-16T08:05:53;13.60;99.90
54260;DHT22;40172;53.022;7.012;2022-10-16T08:08:19;13.70;99.90
54260;DHT22;40172;53.022;7.012;2022-10-16T08:10:45;13.70;99.90
54260;DHT22;40172;53.022;7.012;2022-10-16T08:13:10;13.70;99.90
54260;DHT22;40172;53.022;7.012;2022-10-16T08:15:36;13.80;99.90
54260;DHT22;40172;53.022;7.012;2022-10-16T08:18:03;13.90;99.90
54260;DHT22;40172;53.022;7.012;2022-10-16T08:20:30;13.70;99.90
54260;DHT22;40172;53.022;7.012;2022-10-16T08:22:58;13.80;99.90
54260;DHT22;40172;53.022;7.012;2022-10-16T08:25:24;13.90;99.90
54260;DHT22;40172;53.022;7.012;2022-10-16T08:27:50;14.00;99.90
54260;DHT22;40172;53.022;7.012;2022-10-16T08:30:17;14.90;99.90
54260;DHT22;40172;53.022;7.012;2022-10-16T08:32:43;14.00;99.90
54260;DHT22;40172;53.022;7.012;2022-10-16T08:35:10;14.00;99.90
54260;DHT22;40172;53.022;7.012;2022-10-16T08:37:36;14.00;99.90
54260;DHT22;40172;53.022;7.012;2022-10-16T08:40:03;14.10;99.90
54260;DHT22;40172;53.022;7.012;2022-10-16T08:50:38;15.40;99.90
54260;DHT22;40172;53.022;7.012;2022-10-16T08:53:04;14.30;99.90
54260;DHT22;40172;53.022;7.012;2022-10-16T08:58:00;14.20;99.90
54260;DHT22;40172;53.022;7.012;2022-10-16T09:00:26;14.20;99.90
54260;DHT22;40172;53.022;7.012;2022-10-16T09:08:21;14.30;99.90
54260;DHT22;40172;53.022;7.012;2022-10-16T09:18:51;14.40;99.90
54260;DHT22;40172;53.022;7.012;2022-10-16T09:21:24;14.50;99.90
54260;DHT22;40172;53.022;7.012;2022-10-16T09:23:51;14.60;99.90
54260;DHT22;40172;53.022;7.012;2022-10-16T09:26:18;14.60;99.90
54260;DHT22;40172;53.022;7.012;2022-10-16T09:28:45;14.50;99.90
54260;DHT22;40172;53.022;7.012;2022-10-16T09:31:19;14.70;99.90
54260;DHT22;40172;53.022;7.012;2022-10-16T09:33:50;14.80;99.90
54260;DHT22;40172;53.022;7.012;2022-10-16T09:36:18;16.50;99.90
54260;DHT22;40172;53.022;7.012;2022-10-16T09:38:44;14.90;99.90
54260;DHT22;40172;53.022;7.012;2022-10-16T09:41:20;15.00;99.90
54260;DHT22;40172;53.022;7.012;2022-10-16T09:43:57;15.10;99.90
54260;DHT22;40172;53.022;7.012;2022-10-16T09:46:30;15.20;99.90
54260;DHT22;40172;53.022;7.012;2022-10-16T09:49:01;15.30;99.90
54260;DHT22;40172;53.022;7.012;2022-10-16T09:51:37;15.50;99.90
54260;DHT22;40172;53.022;7.012;2022-10-16T09:56:35;15.40;99.90
54260;DHT22;40172;53.022;7.012;2022-10-16T09:59:22;15.50;99.90
54260;DHT22;40172;53.022;7.012;2022-10-16T10:01:54;15.50;99.90
54260;DHT22;40172;53.022;7.012;2022-10-16T10:04:22;17.00;99.90
54260;DHT22;40172;53.022;7.012;2022-10-16T10:06:53;16.00;99.90
54260;DHT22;40172;53.022;7.012;2022-10-16T10:09:34;17.40;99.90
54260;DHT22;40172;53.022;7.012;2022-10-16T10:12:04;15.80;99.90
54260;DHT22;40172;53.022;7.012;2022-10-16T10:17:12;15.90;99.90
54260;DHT22;40172;53.022;7.012;2022-10-16T10:19:50;15.80;99.90
54260;DHT22;40172;53.022;7.012;2022-10-16T10:22:31;16.00;99.90
54260;DHT22;40172;53.022;7.012;2022-10-16T10:25:07;16.10;99.90
54260;DHT22;40172;53.022;7.012;2022-10-16T10:28:05;16.10;99.90
54260;DHT22;40172;53.022;7.012;2022-10-16T10:36:28;16.10;99.90
54260;DHT22;40172;53.022;7.012;2022-10-16T10:39:05;16.20;99.90
54260;DHT22;40172;53.022;7.012;2022-10-16T10:42:06;16.10;99.90
54260;DHT22;40172;53.022;7.012;2022-10-16T10:50:02;16.40;99.90
54260;DHT22;40172;53.022;7.012;2022-10-16T10:52:39;17.80;99.90
54260;DHT22;40172;53.022;7.012;2022-10-16T10:55:20;16.40;99.90
54260;DHT22;40172;53.022;7.012;2022-10-16T10:58:00;17.10;99.90
54260;DHT22;40172;53.022;7.012;2022-10-16T11:01:09;16.30;99.90
54260;DHT22;40172;53.022;7.012;2022-10-16T11:06:44;16.40;99.90
54260;DHT22;40172;53.022;7.012;2022-10-16T11:09:52;16.50;99.90
54260;DHT22;40172;53.022;7.012;2022-10-16T11:12:25;16.60;99.90
54260;DHT22;40172;53.022;7.012;2022-10-16T11:14:58;16.60;99.90
54260;DHT22;40172;53.022;7.012;2022-10-16T11:17:35;16.70;99.90
54260;DHT22;40172;53.022;7.012;2022-10-16T11:22:50;16.60;99.90
54260;DHT22;40172;53.022;7.012;2022-10-16T11:25:23;16.50;99.90
54260;DHT22;40172;53.022;7.012;2022-10-16T11:27:52;16.50;99.90
54260;DHT22;40172;53.022;7.012;2022-10-16T11:30:28;16.60;99.90
54260;DHT22;40172;53.022;7.012;2022-10-16T11:33:20;16.70;99.90
54260;DHT22;40172;53.022;7.012;2022-10-16T11:35:48;16.70;99.90
54260;DHT22;40172;53.022;7.012;2022-10-16T11:41:50;16.80;99.90
54260;DHT22;40172;53.022;7.012;2022-10-16T11:45:12;16.80;99.90
54260;DHT22;40172;53.022;7.012;2022-10-16T11:55:39;16.90;99.90
54260;DHT22;40172;53.022;7.012;2022-10-16T12:00:52;16.90;99.90
54260;DHT22;40172;53.022;7.012;2022-10-16T12:09:01;17.00;99.90
54260;DHT22;40172;53.022;7.012;2022-10-16T12:14:18;16.80;99.90
54260;DHT22;40172;53.022;7.012;2022-10-16T12:16:56;16.80;99.90
54260;DHT22;40172;53.022;7.012;2022-10-16T12:19:24;16.80;99.90
54260;DHT22;40172;53.022;7.012;2022-10-16T12:21:51;16.70;99.90
54260;DHT22;40172;53.022;7.012;2022-10-16T12:24:27;16.50;99.90
54260;DHT22;40172;53.022;7.012;2022-10-16T12:26:55;16.50;99.90
54260;DHT22;40172;53.022;7.012;2022-10-16T12:29:39;16.50;99.90
54260;DHT22;40172;53.022;7.012;2022-10-16T12:32:36;16.50;99.90
54260;DHT22;40172;53.022;7.012;2022-10-16T12:35:03;16.40;99.90
54260;DHT22;40172;53.022;7.012;2022-10-16T12:37:38;16.30;99.90
54260;DHT22;40172;53.022;7.012;2022-10-16T12:40:23;16.30;99.90
54260;DHT22;40172;53.022;7.012;2022-10-16T12:42:49;16.30;99.90
54260;DHT22;40172;53.022;7.012;2022-10-16T12:47:51;16.40;99.90
54260;DHT22;40172;53.022;7.012;2022-10-16T12:50:32;16.50;99.90
54260;DHT22;40172;53.022;7.012;2022-10-16T12:52:59;16.60;99.90
54260;DHT22;40172;53.022;7.012;2022-10-16T12:55:26;16.70;99.90
54260;DHT22;40172;53.022;7.012;2022-10-16T13:01:04;17.00;99.90
54260;DHT22;40172;53.022;7.012;2022-10-16T13:12:49;16.50;99.90
54260;DHT22;40172;53.022;7.012;2022-10-16T13:15:32;16.30;99.90
54260;DHT22;40172;53.022;7.012;2022-10-16T13:18:48;16.40;99.90
54260;DHT22;40172;53.022;7.012;2022-10-16T13:21:28;16.10;99.90
54260;DHT22;40172;53.022;7.012;2022-10-16T13:29:15;16.00;99.90
54260;DHT22;40172;53.022;7.012;2022-10-16T13:31:42;16.10;99.90
54260;DHT22;40172;53.022;7.012;2022-10-16T13:34:21;16.10;99.90
54260;DHT22;40172;53.022;7.012;2022-10-16T13:36:50;16.10;99.90
54260;DHT22;40172;53.022;7.012;2022-10-16T13:39:28;16.00;99.90
54260;DHT22;40172;53.022;7.012;2022-10-16T13:42:04;16.00;99.90
54260;DHT22;40172;53.022;7.012;2022-10-16T13:44:49;15.90;99.90
54260;DHT22;40172;53.022;7.012;2022-10-16T13:47:18;15.90;99.90
54260;DHT22;40172;53.022;7.012;2022-10-16T13:49:44;15.90;99.90
54260;DHT22;40172;53.022;7.012;2022-10-16T13:52:18;15.90;99.90
54260;DHT22;40172;53.022;7.012;2022-10-16T13:54:44;16.00;99.90
54260;DHT22;40172;53.022;7.012;2022-10-16T13:57:14;16.10;99.90
54260;DHT22;40172;53.022;7.012;2022-10-16T13:59:39;16.20;99.90
54260;DHT22;40172;53.022;7.012;2022-10-16T14:02:19;16.40;99.90
54260;DHT22;40172;53.022;7.012;2022-10-16T14:04:47;16.60;99.90
54260;DHT22;40172;53.022;7.012;2022-10-16T14:07:18;16.60;99.90
54260;DHT22;40172;53.022;7.012;2022-10-16T14:09:48;16.60;99.90
54260;DHT22;40172;53.022;7.012;2022-10-16T14:12:15;16.60;99.90
54260;DHT22;40172;53.022;7.012;2022-10-16T14:14:45;16.60;99.90
54260;DHT22;40172;53.022;7.012;2022-10-16T14:17:27;16.60;99.90
54260;DHT22;40172;53.022;7.012;2022-10-16T14:19:58;16.60;99.90
54260;DHT22;40172;53.022;7.012;2022-10-16T14:27:43;16.70;99.90
54260;DHT22;40172;53.022;7.012;2022-10-16T14:30:13;16.70;99.90
54260;DHT22;40172;53.022;7.012;2022-10-16T14:32:41;16.70;99.90
54260;DHT22;40172;53.022;7.012;2022-10-16T14:35:29;16.70;99.90
54260;DHT22;40172;53.022;7.012;2022-10-16T14:37:56;16.70;99.90
54260;DHT22;40172;53.022;7.012;2022-10-16T14:40:31;16.70;99.90
54260;DHT22;40172;53.022;7.012;2022-10-16T14:42:58;16.60;99.90
54260;DHT22;40172;53.022;7.012;2022-10-16T14:45:30;16.60;99.90
54260;DHT22;40172;53.022;7.012;2022-10-16T14:48:02;16.40;99.90
54260;DHT22;40172;53.022;7.012;2022-10-16T14:50:29;16.30;99.90
54260;DHT22;40172;53.022;7.012;2022-10-16T14:52:55;16.20;99.90
54260;DHT22;40172;53.022;7.012;2022-10-16T14:55:20;16.10;99.90
54260;DHT22;40172;53.022;7.012;2022-10-16T14:57:47;16.00;99.90
54260;DHT22;40172;53.022;7.012;2022-10-16T15:00:19;15.90;99.90
54260;DHT22;40172;53.022;7.012;2022-10-16T15:02:47;16.00;99.90
54260;DHT22;40172;53.022;7.012;2022-10-16T15:05:26;15.90;99.90
54260;DHT22;40172;53.022;7.012;2022-10-16T15:07:54;15.90;99.90
54260;DHT22;40172;53.022;7.012;2022-10-16T15:10:22;15.90;99.90
54260;DHT22;40172;53.022;7.012;2022-10-16T15:12:48;15.80;99.90
54260;DHT22;40172;53.022;7.012;2022-10-16T15:17:54;15.90;99.90
54260;DHT22;40172;53.022;7.012;2022-10-16T15:20:27;15.80;99.90
54260;DHT22;40172;53.022;7.012;2022-10-16T15:22:53;15.80;99.90
54260;DHT22;40172;53.022;7.012;2022-10-16T15:27:57;15.80;99.90
54260;DHT22;40172;53.022;7.012;2022-10-16T15:30:23;15.70;99.90
54260;DHT22;40172;53.022;7.012;2022-10-16T15:32:49;15.80;99.90
54260;DHT22;40172;53.022;7.012;2022-10-16T15:35:14;15.70;99.90
54260;DHT22;40172;53.022;7.012;2022-10-16T15:37:40;15.70;99.90
54260;DHT22;40172;53.022;7.012;2022-10-16T15:40:06;15.60;99.90
54260;DHT22;40172;53.022;7.012;2022-10-16T15:42:31;15.60;99.90
54260;DHT22;40172;53.022;7.012;2022-10-16T15:44:57;15.50;99.90
54260;DHT22;40172;53.022;7.012;2022-10-16T15:47:23;15.50;99.90
54260;DHT22;40172;53.022;7.012;2022-10-16T15:49:48;15.40;99.90
54260;DHT22;40172;53.022;7.012;2022-10-16T15:52:14;15.30;99.90
54260;DHT22;40172;53.022;7.012;2022-10-16T15:54:39;15.20;99.90
54260;DHT22;40172;53.022;7.012;2022-10-16T15:57:05;15.20;99.90
54260;DHT22;40172;53.022;7.012;2022-10-16T15:59:30;15.10;99.90
54260;DHT22;40172;53.022;7.012;2022-10-16T16:01:56;15.00;99.90
54260;DHT22;40172;53.022;7.012;2022-10-16T16:04:22;14.90;99.90
54260;DHT22;40172;53.022;7.012;2022-10-16T16:06:48;14.70;99.90
54260;DHT22;40172;53.022;7.012;2022-10-16T16:09:14;14.60;99.90
54260;DHT22;40172;53.022;7.012;2022-10-16T16:11:40;14.60;99.90
54260;DHT22;40172;53.022;7.012;2022-10-16T16:14:08;14.40;99.90
54260;DHT22;40172;53.022;7.012;2022-10-16T16:16:49;14.30;99.90
54260;DHT22;40172;53.022;7.012;2022-10-16T16:19:46;13.90;99.90
54260;DHT22;40172;53.022;7.012;2022-10-16T16:22:51;14.10;99.90
54260;DHT22;40172;53.022;7.012;2022-10-16T16:25:26;13.40;99.90
54260;DHT22;40172;53.022;7.012;2022-10-16T16:28:09;13.10;99.90
54260;DHT22;40172;53.022;7.012;2022-10-16T16:30:53;14.50;99.90
54260;DHT22;40172;53.022;7.012;2022-10-16T16:33:24;12.40;99.90
54260;DHT22;40172;53.022;7.012;2022-10-16T16:36:10;13.60;99.90
54260;DHT22;40172;53.022;7.012;2022-10-16T16:38:44;13.30;99.90
54260;DHT22;40172;53.022;7.012;2022-10-16T16:41:27;11.80;99.90
54260;DHT22;40172;53.022;7.012;2022-10-16T16:46:36;13.20;99.90
54260;DHT22;40172;53.022;7.012;2022-10-16T16:49:06;13.60;99.90
54260;DHT22;40172;53.022;7.012;2022-10-16T16:51:38;13.00;99.90
54260;DHT22;40172;53.022;7.012;2022-10-16T16:54:05;14.30;99.90
54260;DHT22;40172;53.022;7.012;2022-10-16T16:56:58;12.80;99.90
54260;DHT22;40172;53.022;7.012;2022-10-16T16:59:40;12.60;99.90
54260;DHT22;40172;53.022;7.012;2022-10-16T17:02:14;12.10;99.90
54260;DHT22;40172;53.022;7.012;2022-10-16T17:04:40;14.30;99.90
54260;DHT22;40172;53.022;7.012;2022-10-16T17:19:28;12.40;99.90
54260;DHT22;40172;53.022;7.012;2022-10-16T17:40:07;11.70;99.90
54260;DHT22;40172;53.022;7.012;2022-10-16T17:42:34;10.60;99.90
54260;DHT22;40172;53.022;7.012;2022-10-16T17:51:14;11.60;99.90
54260;DHT22;40172;53.022;7.012;2022-10-16T17:53:40;11.70;99.90
54260;DHT22;40172;53.022;7.012;2022-10-16T17:56:17;11.10;99.90
54260;DHT22;40172;53.022;7.012;2022-10-16T17:58:49;12.10;99.90
54260;DHT22;40172;53.022;7.012;2022-10-16T18:01:39;13.10;99.90
54260;DHT22;40172;53.022;7.012;2022-10-16T18:05:12;12.90;99.90
54260;DHT22;40172;53.022;7.012;2022-10-16T18:19:47;11.20;99.90
54260;DHT22;40172;53.022;7.012;2022-10-16T18:22:18;12.50;99.90
54260;DHT22;40172;53.022;7.012;2022-10-16T18:24:44;10.90;99.90
54260;DHT22;40172;53.022;7.012;2022-10-16T18:27:13;11.10;99.90
54260;DHT22;40172;53.022;7.012;2022-10-16T18:29:59;10.90;99.90